Time;durP1;ratioP1;P1;durP2;ratioP2;P2;SDS_P1;SDS_P2;PMS_P1;PMS_P2;Temp;Humidity;BMP_temperature;BMP_pressure;BME280_temperature;BME280_humidity;BME280_pressure;Samples;Min_cycle;Max_cycle;Signal;HPM_P1;HPM_P2
2021/12/30 00:00:58;;;;;;;35.45;5.43;;;8.30;99.90;;;;;;5067805;28;20119;-75
2021/12/30 00:03:24;;;;;;;36.30;5.45;;;8.30;99.90;;;;;;5068080;28;20102;-75
2021/12/30 00:05:52;;;;;;;31.92;6.07;;;8.30;99.90;;;;;;5065445;28;20072;-75
2021/12/30 00:08:18;;;;;;;39.25;6.00;;;8.20;99.90;;;;;;5062582;28;20044;-75
2021/12/30 00:10:44;;;;;;;37.95;6.25;;;8.20;99.90;;;;;;5069202;28;20116;-75
2021/12/30 00:13:10;;;;;;;41.75;7.28;;;8.20;99.90;;;;;;5066725;28;20461;-75
2021/12/30 00:15:36;;;;;;;35.85;5.97;;;8.20;99.90;;;;;;5073957;28;20037;-75
2021/12/30 00:18:03;;;;;;;39.15;6.10;;;8.20;99.90;;;;;;5069124;28;20048;-75
2021/12/30 00:20:28;;;;;;;35.97;5.95;;;8.30;99.90;;;;;;5065395;28;20082;-75
2021/12/30 00:22:54;;;;;;;40.90;6.75;;;8.20;99.90;;;;;;5067860;28;20036;-76
2021/12/30 00:25:20;;;;;;;36.95;6.28;;;7.70;99.90;;;;;;5066033;28;20033;-76
2021/12/30 00:27:46;;;;;;;44.63;6.22;;;8.20;99.90;;;;;;5068616;28;20132;-76
2021/12/30 00:30:12;;;;;;;41.15;6.30;;;8.20;99.90;;;;;;5070748;28;20043;-76
2021/12/30 00:32:38;;;;;;;42.42;6.55;;;8.30;99.90;;;;;;5062310;28;20066;-76
2021/12/30 00:35:05;;;;;;;34.65;5.93;;;8.20;99.90;;;;;;5069563;28;20499;-76
2021/12/30 00:37:31;;;;;;;41.42;6.30;;;8.70;99.90;;;;;;5064859;28;20488;-76
2021/12/30 00:39:56;;;;;;;48.33;6.00;;;8.20;99.90;;;;;;5067642;28;20037;-76
2021/12/30 00:42:22;;;;;;;36.53;6.20;;;8.20;99.90;;;;;;5072495;28;20091;-76
2021/12/30 00:44:48;;;;;;;33.08;5.68;;;8.20;99.90;;;;;;5070670;28;20037;-76
2021/12/30 00:47:13;;;;;;;46.50;6.45;;;8.20;99.90;;;;;;5064182;28;20043;-76
2021/12/30 00:49:39;;;;;;;39.70;6.95;;;8.20;99.90;;;;;;5069451;28;20056;-76
2021/12/30 00:52:05;;;;;;;39.28;6.38;;;8.20;99.90;;;;;;5070423;28;20098;-76
2021/12/30 00:54:30;;;;;;;35.50;6.80;;;8.20;99.90;;;;;;5068643;28;20087;-76
2021/12/30 00:56:56;;;;;;;60.20;8.45;;;8.20;99.90;;;;;;5062272;28;20047;-76
2021/12/30 00:59:21;;;;;;;48.72;6.60;;;8.20;99.90;;;;;;5067078;28;20403;-76
2021/12/30 01:01:47;;;;;;;41.10;6.38;;;8.20;99.90;;;;;;5065554;28;20098;-76
2021/12/30 01:04:13;;;;;;;50.80;6.97;;;8.10;99.90;;;;;;5068759;28;20368;-76
2021/12/30 01:06:38;;;;;;;50.17;6.50;;;8.10;99.90;;;;;;5063921;28;20072;-76
2021/12/30 01:09:05;;;;;;;45.35;7.60;;;8.10;99.90;;;;;;5061137;28;20408;-76
2021/12/30 01:11:31;;;;;;;46.13;7.45;;;8.10;99.90;;;;;;5064006;28;20614;-75
2021/12/30 01:14:02;;;;;;;47.58;7.43;;;8.10;99.90;;;;;;5068661;28;20127;-74
2021/12/30 01:16:30;;;;;;;46.55;6.70;;;8.10;99.90;;;;;;5066477;28;20526;-75
2021/12/30 01:21:41;;;;;;;48.28;7.60;;;8.10;99.90;;;;;;5066561;28;20037;-75
2021/12/30 01:24:06;;;;;;;45.40;7.05;;;8.00;99.90;;;;;;5064949;28;20044;-75
2021/12/30 01:26:32;;;;;;;48.95;6.40;;;8.00;99.90;;;;;;5065975;28;20407;-76
2021/12/30 01:28:58;;;;;;;45.25;7.47;;;8.00;99.90;;;;;;5068880;28;20140;-75
2021/12/30 01:31:23;;;;;;;51.33;7.38;;;8.00;99.90;;;;;;5070673;28;20053;-75
2021/12/30 01:33:49;;;;;;;41.78;6.68;;;8.00;99.90;;;;;;5069287;28;20060;-75
2021/12/30 01:36:16;;;;;;;34.20;6.78;;;8.00;99.90;;;;;;5075371;28;20040;-75
2021/12/30 01:38:42;;;;;;;59.22;8.90;;;7.90;99.90;;;;;;5061869;28;20147;-75
2021/12/30 01:41:09;;;;;;;43.88;6.32;;;7.90;99.90;;;;;;5070071;28;20044;-75
2021/12/30 01:43:36;;;;;;;50.95;8.38;;;7.90;99.90;;;;;;5067761;28;20036;-75
2021/12/30 01:46:06;;;;;;;42.65;6.80;;;7.90;99.90;;;;;;5066010;28;20396;-75
2021/12/30 01:48:32;;;;;;;51.13;7.55;;;7.90;99.90;;;;;;5068688;28;20135;-75
2021/12/30 01:50:58;;;;;;;45.28;6.80;;;7.90;99.90;;;;;;5068624;28;20052;-75
2021/12/30 01:53:24;;;;;;;52.20;7.47;;;7.90;99.90;;;;;;5070106;28;20515;-75
2021/12/30 01:55:50;;;;;;;47.38;8.70;;;7.80;99.90;;;;;;5065202;28;20044;-75
2021/12/30 01:58:16;;;;;;;43.45;6.35;;;7.80;99.90;;;;;;5064189;28;20060;-75
2021/12/30 02:00:45;;;;;;;43.50;7.25;;;7.80;99.90;;;;;;5069002;28;20361;-75
2021/12/30 02:03:11;;;;;;;41.97;7.13;;;7.80;99.90;;;;;;5067762;28;20634;-75
2021/12/30 02:05:38;;;;;;;40.13;6.70;;;7.80;99.90;;;;;;5061119;28;20051;-75
2021/12/30 02:08:10;;;;;;;41.92;6.60;;;7.80;99.90;;;;;;5064269;28;20041;-75
2021/12/30 02:10:35;;;;;;;41.47;7.05;;;7.80;99.90;;;;;;5060799;28;20052;-76
2021/12/30 02:13:02;;;;;;;44.20;5.68;;;8.10;99.90;;;;;;5064572;28;21085;-76
2021/12/30 02:15:27;;;;;;;47.00;7.53;;;7.80;99.90;;;;;;5067325;28;20048;-76
2021/12/30 02:17:54;;;;;;;39.70;6.55;;;7.80;99.90;;;;;;5067882;28;20506;-76
2021/12/30 02:20:41;;;;;;;44.25;7.57;;;7.80;99.90;;;;;;5068020;28;20125;-76
2021/12/30 02:23:08;;;;;;;36.78;5.78;;;7.80;99.90;;;;;;5069217;28;20081;-76
2021/12/30 02:25:34;;;;;;;40.20;5.75;;;7.80;99.90;;;;;;5078465;28;20055;-75
2021/12/30 02:27:59;;;;;;;43.88;6.70;;;7.80;99.90;;;;;;5065754;28;20036;-76
2021/12/30 02:30:25;;;;;;;52.90;7.57;;;8.00;99.90;;;;;;5068325;28;20044;-76
2021/12/30 02:32:51;;;;;;;45.40;7.15;;;7.80;99.90;;;;;;5067841;28;20418;-75
2021/12/30 02:35:17;;;;;;;44.38;7.15;;;7.80;99.90;;;;;;5067345;28;20071;-76
2021/12/30 02:37:42;;;;;;;55.20;7.75;;;7.80;99.90;;;;;;5068273;28;20131;-76
2021/12/30 02:40:08;;;;;;;36.95;6.03;;;7.80;99.90;;;;;;5065006;28;20029;-76
2021/12/30 02:42:34;;;;;;;51.88;7.22;;;7.80;99.90;;;;;;5068695;28;20052;-76
2021/12/30 02:45:00;;;;;;;48.42;7.35;;;7.80;99.90;;;;;;5065609;28;20476;-76
2021/12/30 02:47:25;;;;;;;40.33;5.93;;;7.70;99.90;;;;;;5066021;28;20125;-76
2021/12/30 02:49:51;;;;;;;43.88;5.97;;;7.70;99.90;;;;;;5066791;28;20210;-76
2021/12/30 02:52:17;;;;;;;41.28;7.25;;;7.70;99.90;;;;;;5068536;28;20403;-76
2021/12/30 02:54:43;;;;;;;47.17;7.13;;;7.70;99.90;;;;;;5067570;28;20056;-76
2021/12/30 02:57:10;;;;;;;42.90;6.80;;;7.70;99.90;;;;;;5066249;28;20040;-76
2021/12/30 02:59:36;;;;;;;52.70;8.13;;;7.70;99.90;;;;;;5062583;28;20047;-76
2021/12/30 03:02:02;;;;;;;46.95;7.50;;;7.80;99.90;;;;;;5068517;28;20126;-76
2021/12/30 03:04:29;;;;;;;49.88;8.18;;;7.80;99.90;;;;;;5081865;28;20048;-76
2021/12/30 03:06:57;;;;;;;63.45;9.32;;;7.80;99.90;;;;;;5066678;28;20044;-76
2021/12/30 03:09:22;;;;;;;63.15;9.35;;;7.80;99.90;;;;;;5067089;28;20040;-76
2021/12/30 03:11:48;;;;;;;48.63;7.35;;;7.80;99.90;;;;;;5064393;28;20514;-76
2021/12/30 03:14:14;;;;;;;40.70;8.50;;;7.90;99.90;;;;;;5062153;28;20480;-76
2021/12/30 03:16:42;;;;;;;63.00;8.73;;;7.90;99.90;;;;;;5063090;28;20053;-76
2021/12/30 03:19:08;;;;;;;54.47;9.05;;;7.90;99.90;;;;;;5062604;28;20135;-76
2021/12/30 03:21:33;;;;;;;52.08;9.85;;;7.90;99.90;;;;;;5066771;28;20085;-76
2021/12/30 03:24:01;;;;;;;69.03;10.70;;;8.00;99.90;;;;;;5068054;28;20066;-76
2021/12/30 03:26:27;;;;;;;60.63;10.07;;;8.00;99.90;;;;;;5066846;28;20044;-75
2021/12/30 03:28:53;;;;;;;57.00;10.68;;;8.00;99.90;;;;;;5062167;28;20051;-76
2021/12/30 03:31:20;;;;;;;61.05;11.70;;;8.00;99.90;;;;;;5066763;28;20048;-76
2021/12/30 03:33:47;;;;;;;55.22;11.70;;;8.00;99.90;;;;;;5070441;28;20121;-75
2021/12/30 03:36:14;;;;;;;65.95;11.93;;;8.00;99.90;;;;;;5064541;28;20515;-76
2021/12/30 03:38:45;;;;;;;59.67;12.98;;;8.10;99.90;;;;;;5066138;28;20048;-75
2021/12/30 03:41:14;;;;;;;60.65;12.52;;;8.10;99.90;;;;;;5065051;28;20136;-76
2021/12/30 03:43:39;;;;;;;72.90;13.90;;;8.10;99.90;;;;;;5063138;28;20071;-75
2021/12/30 03:46:07;;;;;;;68.72;13.18;;;8.20;99.90;;;;;;5071343;28;20126;-75
2021/12/30 03:48:35;;;;;;;64.25;13.38;;;8.20;99.90;;;;;;5062355;28;20063;-76
2021/12/30 03:51:05;;;;;;;60.88;14.35;;;8.20;99.90;;;;;;5063355;28;20517;-76
2021/12/30 03:53:31;;;;;;;65.60;13.43;;;8.20;99.90;;;;;;5067705;28;20606;-76
2021/12/30 03:55:57;;;;;;;61.22;14.45;;;8.30;99.90;;;;;;5066559;28;20037;-76
2021/12/30 03:58:23;;;;;;;58.65;14.40;;;8.30;99.90;;;;;;5065781;28;20059;-76
2021/12/30 04:00:48;;;;;;;72.38;15.32;;;8.30;99.90;;;;;;5063898;28;20086;-76
2021/12/30 04:03:14;;;;;;;63.70;14.98;;;8.30;99.90;;;;;;5064285;28;20051;-76
2021/12/30 04:05:40;;;;;;;66.90;15.63;;;8.40;99.90;;;;;;5060286;28;20040;-76
2021/12/30 04:08:07;;;;;;;71.13;17.20;;;8.40;99.90;;;;;;5064131;28;20032;-76
2021/12/30 04:10:34;;;;;;;62.67;15.57;;;8.40;99.90;;;;;;5065426;28;20056;-76
2021/12/30 04:13:00;;;;;;;59.42;15.65;;;8.40;99.90;;;;;;5063096;28;20534;-76
2021/12/30 04:15:25;;;;;;;80.32;16.42;;;8.50;99.90;;;;;;5067091;28;20049;-76
2021/12/30 04:17:51;;;;;;;78.70;18.30;;;8.50;99.90;;;;;;5061423;28;20040;-76
2021/12/30 04:20:17;;;;;;;83.15;17.55;;;8.50;99.90;;;;;;5061420;28;20471;-76
2021/12/30 04:22:43;;;;;;;81.95;17.55;;;8.60;99.90;;;;;;5067673;28;20044;-76
2021/12/30 04:25:12;;;;;;;68.80;17.17;;;8.60;99.90;;;;;;5065187;28;20043;-76
2021/12/30 04:27:38;;;;;;;75.90;16.75;;;8.60;99.90;;;;;;5065298;28;20057;-76
2021/12/30 04:30:06;;;;;;;77.53;16.80;;;8.60;99.90;;;;;;5065466;28;20075;-76
2021/12/30 04:32:32;;;;;;;69.75;15.52;;;8.60;99.90;;;;;;5065936;28;20094;-76
2021/12/30 04:34:58;;;;;;;66.40;16.23;;;8.60;99.90;;;;;;5066461;28;20488;-76
2021/12/30 04:37:23;;;;;;;66.13;15.23;;;8.70;99.90;;;;;;5063597;28;20037;-76
2021/12/30 04:39:49;;;;;;;66.40;16.45;;;8.70;99.90;;;;;;5064482;28;20040;-76
2021/12/30 04:42:15;;;;;;;73.38;15.52;;;8.70;99.90;;;;;;5067781;28;20047;-76
2021/12/30 04:44:40;;;;;;;79.93;15.23;;;8.70;99.90;;;;;;5070573;28;20040;-76
2021/12/30 04:47:06;;;;;;;75.68;15.00;;;8.70;99.90;;;;;;5063905;28;20049;-76
2021/12/30 04:49:32;;;;;;;79.57;16.17;;;8.70;99.90;;;;;;5060215;28;20088;-76
2021/12/30 04:51:57;;;;;;;86.63;17.27;;;8.80;99.90;;;;;;5064647;28;20484;-76
2021/12/30 04:54:23;;;;;;;84.25;17.05;;;8.80;99.90;;;;;;5067888;28;20052;-76
2021/12/30 04:56:50;;;;;;;89.20;17.45;;;8.90;99.90;;;;;;5065804;28;20048;-76
2021/12/30 04:59:16;;;;;;;84.00;18.67;;;8.90;99.90;;;;;;5067859;28;20096;-76
2021/12/30 05:01:42;;;;;;;88.15;18.52;;;9.00;99.90;;;;;;5069715;28;20111;-76
2021/12/30 05:04:07;;;;;;;78.57;18.70;;;9.00;99.90;;;;;;5072396;28;20040;-76
2021/12/30 05:06:36;;;;;;;74.45;19.40;;;9.10;99.90;;;;;;5063612;28;20056;-76
2021/12/30 05:09:03;;;;;;;87.72;20.13;;;9.20;99.90;;;;;;5062994;28;20497;-76
2021/12/30 05:11:28;;;;;;;81.75;20.65;;;9.20;99.90;;;;;;5058792;28;20154;-76
2021/12/30 05:13:54;;;;;;;90.50;21.73;;;9.20;99.90;;;;;;5072415;28;20055;-76
2021/12/30 05:16:20;;;;;;;90.88;20.50;;;9.30;99.90;;;;;;5068605;28;20406;-76
2021/12/30 05:18:48;;;;;;;98.25;20.55;;;9.30;99.90;;;;;;5068577;28;20044;-76
2021/12/30 05:21:13;;;;;;;79.90;19.42;;;9.60;99.90;;;;;;5059474;28;20045;-77
2021/12/30 05:23:39;;;;;;;71.28;17.35;;;9.40;99.90;;;;;;5066524;28;20032;-76
2021/12/30 05:26:05;;;;;;;62.50;16.30;;;9.40;99.90;;;;;;5065381;28;20147;-76
2021/12/30 05:28:30;;;;;;;76.32;17.05;;;9.40;99.90;;;;;;5066194;28;20046;-76
2021/12/30 05:30:56;;;;;;;73.00;18.13;;;9.50;99.90;;;;;;5067206;28;20036;-76
2021/12/30 05:33:22;;;;;;;65.00;17.38;;;9.50;99.90;;;;;;5070593;28;20059;-76
2021/12/30 05:35:47;;;;;;;70.97;17.08;;;9.60;99.90;;;;;;5068635;28;20131;-76
2021/12/30 05:38:16;;;;;;;49.90;15.38;;;9.60;99.90;;;;;;5067189;28;20056;-77
2021/12/30 05:40:42;;;;;;;76.32;16.60;;;9.70;99.90;;;;;;5066429;28;20051;-76
2021/12/30 05:43:08;;;;;;;60.20;16.48;;;9.70;99.90;;;;;;5067534;28;20462;-76
2021/12/30 05:45:34;;;;;;;66.18;16.60;;;9.70;99.90;;;;;;5068407;28;20052;-76
2021/12/30 05:47:59;;;;;;;54.45;15.43;;;9.70;99.90;;;;;;5067743;28;20482;-76
2021/12/30 05:50:31;;;;;;;63.25;15.68;;;9.80;99.90;;;;;;5068970;28;20420;-76
2021/12/30 05:52:57;;;;;;;48.05;15.18;;;9.80;99.90;;;;;;5070148;28;20171;-76
2021/12/30 05:55:22;;;;;;;49.85;13.77;;;9.90;99.90;;;;;;5064121;28;20482;-76
2021/12/30 05:57:49;;;;;;;48.80;14.43;;;9.90;99.90;;;;;;5068409;28;20097;-76
2021/12/30 06:00:18;;;;;;;45.60;13.95;;;10.00;99.90;;;;;;5066587;28;20376;-76
2021/12/30 06:02:44;;;;;;;47.78;13.10;;;10.00;99.90;;;;;;5069351;28;20048;-76
2021/12/30 06:05:10;;;;;;;40.00;13.15;;;10.00;99.90;;;;;;5060936;28;20044;-77
2021/12/30 06:07:36;;;;;;;41.13;12.60;;;10.00;99.90;;;;;;5067932;28;20040;-77
2021/12/30 06:10:02;;;;;;;35.13;13.43;;;10.00;99.90;;;;;;5065700;28;20430;-77
2021/12/30 06:12:28;;;;;;;40.55;13.23;;;10.10;99.90;;;;;;5066516;28;20492;-77
2021/12/30 06:14:53;;;;;;;38.20;12.95;;;10.10;99.90;;;;;;5067330;28;20036;-76
2021/12/30 06:17:19;;;;;;;33.78;11.93;;;10.10;99.90;;;;;;5065352;28;20075;-77
2021/12/30 06:19:45;;;;;;;42.40;14.05;;;10.20;99.90;;;;;;5067465;28;20040;-77
2021/12/30 06:22:11;;;;;;;40.33;14.30;;;10.10;99.90;;;;;;5069351;28;20056;-77
2021/12/30 06:24:37;;;;;;;50.50;14.82;;;10.10;99.90;;;;;;5070253;28;20052;-77
2021/12/30 06:27:03;;;;;;;45.75;14.48;;;10.20;99.90;;;;;;5066924;28;20067;-76
2021/12/30 06:29:29;;;;;;;45.53;15.95;;;10.20;99.90;;;;;;5065127;28;20052;-76
2021/12/30 06:31:54;;;;;;;53.60;18.05;;;10.20;99.90;;;;;;5068336;28;20057;-77
2021/12/30 06:34:20;;;;;;;61.28;19.52;;;10.20;99.90;;;;;;5067728;28;20044;-77
2021/12/30 06:36:46;;;;;;;72.00;19.95;;;10.20;99.90;;;;;;5063480;28;20086;-76
2021/12/30 06:39:11;;;;;;;66.60;20.70;;;10.20;99.90;;;;;;5063773;28;20139;-77
2021/12/30 06:41:37;;;;;;;68.20;20.38;;;10.20;99.90;;;;;;5074698;28;20408;-77
2021/12/30 06:44:03;;;;;;;74.95;21.73;;;10.30;99.90;;;;;;5059564;28;20111;-77
2021/12/30 06:46:28;;;;;;;74.25;21.98;;;10.30;99.90;;;;;;5062397;28;20048;-77
2021/12/30 06:48:54;;;;;;;115.95;25.13;;;10.30;99.90;;;;;;5062589;28;20064;-77
2021/12/30 06:51:23;;;;;;;104.10;25.77;;;10.40;99.90;;;;;;5063122;28;20127;-77
2021/12/30 06:53:49;;;;;;;123.47;25.83;;;10.40;99.90;;;;;;5074131;28;20107;-77
2021/12/30 06:56:14;;;;;;;85.88;23.25;;;10.40;99.90;;;;;;5064859;28;20547;-77
2021/12/30 06:58:40;;;;;;;78.53;21.75;;;10.40;99.90;;;;;;5060646;28;20464;-76
2021/12/30 07:01:06;;;;;;;90.32;22.77;;;10.40;99.90;;;;;;5059055;28;20040;-77
2021/12/30 07:03:31;;;;;;;91.25;21.73;;;10.40;99.90;;;;;;5063382;28;20136;-77
2021/12/30 07:05:57;;;;;;;96.78;24.08;;;10.40;99.90;;;;;;5060882;28;20760;-77
2021/12/30 07:08:22;;;;;;;96.93;23.60;;;10.50;99.90;;;;;;5062322;28;20483;-77
2021/12/30 07:10:49;;;;;;;77.53;20.55;;;10.50;99.90;;;;;;5058910;28;20040;-77
2021/12/30 07:13:14;;;;;;;86.50;19.55;;;10.90;99.90;;;;;;5066945;28;20533;-78
2021/12/30 07:15:40;;;;;;;69.47;18.70;;;10.60;99.90;;;;;;5067310;28;20090;-77
2021/12/30 07:18:05;;;;;;;71.68;18.80;;;10.60;99.90;;;;;;5066145;28;20400;-77
2021/12/30 07:20:31;;;;;;;74.47;19.75;;;10.60;99.90;;;;;;5065635;28;20049;-77
2021/12/30 07:22:57;;;;;;;57.60;16.42;;;10.60;99.90;;;;;;5062329;28;20040;-77
2021/12/30 07:25:22;;;;;;;70.53;17.55;;;10.60;99.90;;;;;;5061022;28;20055;-76
2021/12/30 07:27:51;;;;;;;41.35;14.05;;;10.60;99.90;;;;;;5062912;28;20033;-76
2021/12/30 07:30:18;;;;;;;55.97;16.67;;;10.70;99.90;;;;;;5058261;28;20511;-75
2021/12/30 07:32:44;;;;;;;47.45;14.02;;;10.70;99.90;;;;;;5059204;28;20037;-75
2021/12/30 07:35:09;;;;;;;56.17;14.60;;;10.70;99.90;;;;;;5061332;28;20093;-75
2021/12/30 07:37:35;;;;;;;40.90;13.07;;;10.70;99.90;;;;;;5053510;28;20045;-76
2021/12/30 07:40:01;;;;;;;49.15;12.68;;;10.70;99.90;;;;;;5056123;28;20048;-76
2021/12/30 07:42:26;;;;;;;38.58;11.43;;;10.80;99.90;;;;;;5056878;28;20049;-76
2021/12/30 07:44:52;;;;;;;35.72;10.90;;;10.80;99.90;;;;;;5062186;28;20055;-80
2021/12/30 07:47:17;;;;;;;39.58;11.20;;;10.80;99.90;;;;;;5063322;28;20036;-79
2021/12/30 07:49:43;;;;;;;34.45;10.57;;;10.80;99.90;;;;;;5071665;28;20060;-79
2021/12/30 07:52:09;;;;;;;34.88;9.95;;;10.80;99.90;;;;;;5065062;28;20040;-79
2021/12/30 07:54:35;;;;;;;27.77;9.40;;;10.90;99.90;;;;;;5060005;28;20053;-79
2021/12/30 07:57:00;;;;;;;24.70;8.10;;;10.90;99.90;;;;;;5059241;28;20040;-79
2021/12/30 07:59:26;;;;;;;29.23;9.02;;;10.90;99.90;;;;;;5062752;28;20119;-78
2021/12/30 08:01:52;;;;;;;28.55;8.60;;;10.90;99.90;;;;;;5064782;28;20487;-79
2021/12/30 08:04:18;;;;;;;24.65;7.85;;;10.90;99.90;;;;;;5061241;28;20060;-79
2021/12/30 08:06:43;;;;;;;29.88;7.57;;;10.90;99.90;;;;;;5060970;28;20094;-79
2021/12/30 08:09:09;;;;;;;19.92;6.80;;;10.90;99.90;;;;;;5058217;28;20036;-78
2021/12/30 08:11:35;;;;;;;17.88;6.50;;;10.90;99.90;;;;;;5058641;28;20041;-77
2021/12/30 08:14:01;;;;;;;12.65;4.55;;;11.00;99.90;;;;;;5057715;28;20719;-79
2021/12/30 08:16:27;;;;;;;14.60;4.55;;;11.00;99.90;;;;;;5057749;28;20799;-77
2021/12/30 08:18:53;;;;;;;11.35;4.85;;;10.90;99.90;;;;;;5069319;28;20555;-78
2021/12/30 08:21:20;;;;;;;9.32;3.53;;;10.90;99.90;;;;;;5061596;28;20049;-78
2021/12/30 08:23:46;;;;;;;12.27;5.20;;;11.00;99.90;;;;;;5053725;28;20546;-78
2021/12/30 08:26:12;;;;;;;9.20;2.92;;;11.00;99.90;;;;;;5061529;28;20518;-80
2021/12/30 08:28:37;;;;;;;9.93;3.92;;;11.10;99.90;;;;;;5056123;28;20053;-80
2021/12/30 08:31:04;;;;;;;7.15;2.10;;;11.10;99.90;;;;;;5061984;28;20083;-78
2021/12/30 08:33:29;;;;;;;4.80;1.95;;;11.00;99.90;;;;;;5066874;28;20065;-78
2021/12/30 08:35:55;;;;;;;4.38;1.73;;;11.10;99.90;;;;;;5064876;28;20040;-78
2021/12/30 08:38:20;;;;;;;6.43;2.35;;;11.10;99.90;;;;;;5063401;28;20361;-78
2021/12/30 08:40:47;;;;;;;9.27;2.40;;;11.10;99.90;;;;;;5063242;28;20104;-78
2021/12/30 08:43:14;;;;;;;9.90;2.15;;;11.20;99.90;;;;;;5071647;28;20072;-79
2021/12/30 08:45:41;;;;;;;6.43;2.20;;;11.20;99.90;;;;;;5064206;28;20504;-83
2021/12/30 08:48:06;;;;;;;5.95;1.92;;;11.10;99.90;;;;;;5063697;28;20056;-81
2021/12/30 08:50:32;;;;;;;20.88;3.90;;;11.20;99.90;;;;;;5067983;28;20060;-80
2021/12/30 08:52:58;;;;;;;8.57;3.00;;;11.10;99.90;;;;;;5066761;28;20529;-80
2021/12/30 08:55:23;;;;;;;10.07;3.42;;;11.20;99.90;;;;;;5064110;28;20097;-82
2021/12/30 08:57:49;;;;;;;8.57;3.88;;;11.20;99.90;;;;;;5066304;28;20407;-80
2021/12/30 09:00:23;;;;;;;10.93;4.57;;;11.20;99.90;;;;;;5066920;28;20048;-82
2021/12/30 09:02:51;;;;;;;11.75;6.05;;;11.30;99.90;;;;;;5058827;28;20045;-78
2021/12/30 09:05:17;;;;;;;13.43;6.53;;;11.20;99.90;;;;;;5058441;28;20048;-79
2021/12/30 09:07:43;;;;;;;15.15;7.30;;;11.20;99.90;;;;;;5062318;28;20383;-80
2021/12/30 09:10:10;;;;;;;17.98;7.63;;;11.30;99.90;;;;;;5069350;28;20047;-80
2021/12/30 09:12:37;;;;;;;23.88;8.77;;;11.30;99.90;;;;;;5063886;28;20037;-80
2021/12/30 09:15:04;;;;;;;26.08;9.77;;;11.30;99.90;;;;;;5068487;28;20123;-81
2021/12/30 09:17:30;;;;;;;24.58;9.95;;;11.30;99.90;;;;;;5069477;28;20040;-80
2021/12/30 09:19:55;;;;;;;23.17;9.63;;;11.30;99.90;;;;;;5067009;28;20090;-80
2021/12/30 09:22:21;;;;;;;19.67;8.60;;;11.30;99.90;;;;;;5064355;28;20040;-79
2021/12/30 09:24:46;;;;;;;20.20;8.50;;;11.40;99.90;;;;;;5063101;28;20440;-81
2021/12/30 09:27:12;;;;;;;18.33;8.88;;;11.40;99.90;;;;;;5065895;28;20396;-79
2021/12/30 09:29:37;;;;;;;20.70;7.65;;;11.40;99.90;;;;;;5069052;28;20045;-80
2021/12/30 09:32:03;;;;;;;16.70;6.82;;;11.40;99.90;;;;;;5067281;28;20033;-80
2021/12/30 09:34:29;;;;;;;18.15;6.45;;;11.40;99.90;;;;;;5065952;28;20070;-80
2021/12/30 09:36:55;;;;;;;19.67;6.10;;;11.40;99.90;;;;;;5062970;28;20094;-80
2021/12/30 09:39:21;;;;;;;15.98;5.75;;;11.50;99.90;;;;;;5058570;28;20053;-80
2021/12/30 09:41:47;;;;;;;19.63;5.55;;;11.40;99.90;;;;;;5057459;28;20040;-80
2021/12/30 09:44:16;;;;;;;15.77;4.97;;;11.40;99.90;;;;;;5062093;28;20447;-79
2021/12/30 09:46:43;;;;;;;13.27;5.72;;;11.40;99.90;;;;;;5060738;28;20040;-79
2021/12/30 09:49:12;;;;;;;18.02;7.53;;;11.40;99.90;;;;;;5061391;28;20061;-79
2021/12/30 09:51:42;;;;;;;19.73;7.57;;;11.40;99.90;;;;;;5072093;28;20056;-80
2021/12/30 09:54:08;;;;;;;19.55;7.97;;;11.50;99.90;;;;;;5063398;28;20044;-81
2021/12/30 09:56:34;;;;;;;25.10;9.63;;;11.40;99.90;;;;;;5069387;28;20126;-80
2021/12/30 09:58:59;;;;;;;30.33;9.25;;;11.50;99.90;;;;;;5068462;28;20049;-81
2021/12/30 10:01:25;;;;;;;21.15;8.20;;;11.50;99.90;;;;;;5066511;28;20048;-81
2021/12/30 10:03:56;;;;;;;24.65;9.02;;;11.50;99.90;;;;;;5064621;28;20045;-80
2021/12/30 10:06:22;;;;;;;27.08;9.38;;;11.50;99.90;;;;;;5062898;28;20051;-78
2021/12/30 10:08:59;;;;;;;23.13;9.23;;;11.90;99.90;;;;;;5070118;28;20407;-84
2021/12/30 10:11:28;;;;;;;22.75;8.05;;;11.50;99.90;;;;;;5058376;28;20036;-81
2021/12/30 10:14:01;;;;;;;22.27;8.48;;;11.50;99.90;;;;;;5066580;28;20456;-89
2021/12/30 10:16:28;;;;;;;23.25;7.78;;;11.50;99.90;;;;;;5066050;28;20481;-84
2021/12/30 10:18:57;;;;;;;28.63;8.75;;;11.50;99.90;;;;;;5065503;28;20037;-85
2021/12/30 10:21:44;;;;;;;20.88;7.63;;;12.00;99.90;;;;;;5065295;28;20493;-79
2021/12/30 10:24:12;;;;;;;30.15;8.25;;;11.50;99.90;;;;;;5067394;28;20063;-86
2021/12/30 10:27:07;;;;;;;22.35;7.90;;;11.50;99.90;;;;;;5065927;28;20506;-86
2021/12/30 10:30:03;;;;;;;19.25;8.00;;;11.50;99.90;;;;;;5049818;28;20052;-85
2021/12/30 10:32:30;;;;;;;23.08;8.02;;;11.80;99.90;;;;;;5048465;28;20052;-85
2021/12/30 10:35:12;;;;;;;18.52;6.95;;;11.50;99.90;;;;;;5060962;28;20488;-87
2021/12/30 10:37:45;;;;;;;27.40;7.70;;;11.50;99.90;;;;;;5066969;28;20128;-87
2021/12/30 10:40:28;;;;;;;25.27;8.02;;;11.50;99.90;;;;;;5065258;28;20041;-87
2021/12/30 10:43:12;;;;;;;23.27;8.55;;;11.50;99.90;;;;;;5055527;28;20051;-83
2021/12/30 10:45:41;;;;;;;19.80;6.72;;;11.50;99.90;;;;;;5059056;28;20048;-83
2021/12/30 10:48:09;;;;;;;24.70;7.63;;;11.50;99.90;;;;;;5059415;28;20049;-83
2021/12/30 10:50:35;;;;;;;27.75;8.63;;;11.50;99.90;;;;;;5061807;28;20106;-86
2021/12/30 10:53:00;;;;;;;22.75;7.70;;;11.50;99.90;;;;;;5056761;28;20044;-86
2021/12/30 10:55:26;;;;;;;27.05;7.68;;;11.50;99.90;;;;;;5066372;28;20052;-79
2021/12/30 10:57:53;;;;;;;31.63;9.20;;;11.50;99.90;;;;;;5059737;28;20124;-82
2021/12/30 11:00:31;;;;;;;24.88;7.43;;;11.40;99.90;;;;;;5057440;28;20049;-83
2021/12/30 11:03:26;;;;;;;27.48;8.23;;;11.50;99.90;;;;;;5057734;28;20044;-84
2021/12/30 11:06:11;;;;;;;26.30;7.68;;;11.50;99.90;;;;;;5067699;28;20038;-82
2021/12/30 11:08:37;;;;;;;28.52;8.82;;;11.50;99.90;;;;;;5063852;28;20037;-85
2021/12/30 11:11:25;;;;;;;39.83;8.82;;;11.50;99.90;;;;;;5049617;28;20056;-85
2021/12/30 11:14:12;;;;;;;41.70;9.07;;;11.50;99.90;;;;;;5059815;28;20044;-83
2021/12/30 11:17:03;;;;;;;32.72;8.43;;;11.50;99.90;;;;;;5067045;28;20044;-84
2021/12/30 11:19:31;;;;;;;39.28;8.80;;;11.50;99.90;;;;;;5059681;28;20040;-83
2021/12/30 11:21:59;;;;;;;33.90;8.35;;;11.80;99.90;;;;;;5061970;28;20072;-84
2021/12/30 11:24:29;;;;;;;28.42;7.53;;;11.50;99.90;;;;;;5065744;28;20044;-83
2021/12/30 11:26:56;;;;;;;36.50;8.48;;;11.60;99.90;;;;;;5068864;28;20489;-83
2021/12/30 11:29:22;;;;;;;41.17;8.43;;;11.60;99.90;;;;;;5059647;28;20049;-84
2021/12/30 11:31:48;;;;;;;41.88;8.15;;;11.60;99.90;;;;;;5064073;28;20056;-84
2021/12/30 11:34:14;;;;;;;33.67;8.35;;;11.50;99.90;;;;;;5061695;28;20090;-83
2021/12/30 11:36:40;;;;;;;34.60;7.75;;;11.50;99.90;;;;;;5064809;28;20045;-84
2021/12/30 11:39:18;;;;;;;48.20;9.38;;;11.70;99.90;;;;;;5060254;28;20404;-84
2021/12/30 11:41:52;;;;;;;35.95;7.97;;;11.60;99.90;;;;;;5073621;28;20047;-85
2021/12/30 11:44:44;;;;;;;33.90;8.30;;;11.60;99.90;;;;;;5061150;28;20037;-86
2021/12/30 11:47:32;;;;;;;44.35;8.80;;;11.60;99.90;;;;;;5068114;28;20076;-88
2021/12/30 11:50:04;;;;;;;40.03;8.52;;;11.60;99.90;;;;;;5059497;28;20492;-87
2021/12/30 11:52:51;;;;;;;34.00;8.27;;;11.50;99.90;;;;;;5064209;28;20037;-88
2021/12/30 11:56:11;;;;;;;34.92;7.32;;;11.50;99.90;;;;;;5053863;28;23442;-88
2021/12/30 11:58:40;;;;;;;37.95;8.75;;;11.60;99.90;;;;;;5006726;28;20045;-85
2021/12/30 12:01:12;;;;;;;41.65;8.55;;;11.60;99.90;;;;;;5051103;28;20407;-87
2021/12/30 12:03:40;;;;;;;38.08;7.60;;;11.60;99.90;;;;;;5062923;28;20182;-90
2021/12/30 12:06:31;;;;;;;32.70;8.30;;;11.60;99.90;;;;;;5062768;28;20123;-88
2021/12/30 12:09:13;;;;;;;34.35;8.60;;;12.10;99.90;;;;;;5044600;28;20106;-88
2021/12/30 12:11:43;;;;;;;39.13;8.32;;;11.80;99.90;;;;;;5061167;28;20112;-88
2021/12/30 12:14:14;;;;;;;40.33;8.80;;;11.70;99.90;;;;;;5064922;28;20380;-88
2021/12/30 12:16:46;;;;;;;33.13;8.10;;;11.70;99.90;;;;;;5073974;28;20044;-86
2021/12/30 12:19:13;;;;;;;39.45;7.53;;;11.70;99.90;;;;;;5067880;28;20480;-87
2021/12/30 12:21:44;;;;;;;35.65;7.28;;;11.70;99.90;;;;;;5069388;28;20040;-86
2021/12/30 12:24:22;;;;;;;32.50;8.05;;;11.70;99.90;;;;;;5069175;28;20032;-86
2021/12/30 12:26:49;;;;;;;34.88;7.43;;;11.70;99.90;;;;;;5066256;28;20040;-85
2021/12/30 12:29:27;;;;;;;36.90;7.43;;;11.70;99.90;;;;;;5071591;28;20143;-85
2021/12/30 12:31:55;;;;;;;35.10;7.78;;;11.70;99.90;;;;;;5067991;28;20048;-78
2021/12/30 12:34:51;;;;;;;32.83;7.57;;;11.80;99.90;;;;;;5066308;28;20438;-78
2021/12/30 12:37:40;;;;;;;37.05;8.75;;;11.80;99.90;;;;;;5064917;28;20052;-78
2021/12/30 12:40:10;;;;;;;29.55;8.00;;;11.70;99.90;;;;;;5065008;28;20049;-77
2021/12/30 12:42:51;;;;;;;37.95;7.75;;;11.80;99.90;;;;;;5065626;28;20123;-78
2021/12/30 12:45:17;;;;;;;29.95;8.25;;;11.50;99.90;;;;;;5067945;28;20111;-77